sensor_id;sensor_type;location;lat;lon;timestamp;temperature;humidity
27890;DHT22;15238;49.082;9.102;2022-10-31T00:00:42;10.70;99.90
27890;DHT22;15238;49.082;9.102;2022-10-31T00:02:42;10.60;99.90
27890;DHT22;15238;49.082;9.102;2022-10-31T00:04:43;10.60;99.90
27890;DHT22;15238;49.082;9.102;2022-10-31T00:06:43;10.60;99.90
27890;DHT22;15238;49.082;9.102;2022-10-31T00:08:51;10.60;99.90
27890;DHT22;15238;49.082;9.102;2022-10-31T00:10:52;10.60;99.90
27890;DHT22;15238;49.082;9.102;2022-10-31T00:12:52;10.60;99.90
27890;DHT22;15238;49.082;9.102;2022-10-31T00:14:53;10.60;99.90
27890;DHT22;15238;49.082;9.102;2022-10-31T00:16:53;10.60;99.90
27890;DHT22;15238;49.082;9.102;2022-10-31T00:18:56;10.60;99.90
27890;DHT22;15238;49.082;9.102;2022-10-31T00:21:03;10.50;99.90
27890;DHT22;15238;49.082;9.102;2022-10-31T00:23:05;10.60;99.90
27890;DHT22;15238;49.082;9.102;2022-10-31T00:25:06;10.50;99.90
27890;DHT22;15238;49.082;9.102;2022-10-31T00:27:07;10.50;99.90
27890;DHT22;15238;49.082;9.102;2022-10-31T00:29:07;10.40;99.90
27890;DHT22;15238;49.082;9.102;2022-10-31T00:31:09;10.40;99.90
27890;DHT22;15238;49.082;9.102;2022-10-31T00:33:10;10.40;99.90
27890;DHT22;15238;49.082;9.102;2022-10-31T00:35:10;10.40;99.90
27890;DHT22;15238;49.082;9.102;2022-10-31T00:37:11;10.40;99.90
27890;DHT22;15238;49.082;9.102;2022-10-31T00:39:11;10.40;99.90
27890;DHT22;15238;49.082;9.102;2022-10-31T00:41:13;10.40;99.90
27890;DHT22;15238;49.082;9.102;2022-10-31T00:43:14;10.40;99.90
27890;DHT22;15238;49.082;9.102;2022-10-31T00:45:15;10.40;99.90
27890;DHT22;15238;49.082;9.102;2022-10-31T00:47:15;10.40;99.90
27890;DHT22;15238;49.082;9.102;2022-10-31T00:49:16;10.30;99.90
27890;DHT22;15238;49.082;9.102;2022-10-31T00:51:16;10.30;99.90
27890;DHT22;15238;49.082;9.102;2022-10-31T00:53:17;10.30;99.90
27890;DHT22;15238;49.082;9.102;2022-10-31T00:55:17;10.30;99.90
27890;DHT22;15238;49.082;9.102;2022-10-31T00:57:18;10.30;99.90
27890;DHT22;15238;49.082;9.102;2022-10-31T00:59:18;10.30;99.90
27890;DHT22;15238;49.082;9.102;2022-10-31T01:01:19;10.30;99.90
27890;DHT22;15238;49.082;9.102;2022-10-31T01:03:20;10.30;99.90
27890;DHT22;15238;49.082;9.102;2022-10-31T01:05:20;10.40;99.90
27890;DHT22;15238;49.082;9.102;2022-10-31T01:07:21;10.40;99.90
27890;DHT22;15238;49.082;9.102;2022-10-31T01:09:21;10.40;99.90
27890;DHT22;15238;49.082;9.102;2022-10-31T01:11:23;10.50;99.90
27890;DHT22;15238;49.082;9.102;2022-10-31T01:13:23;10.50;99.90
27890;DHT22;15238;49.082;9.102;2022-10-31T01:15:24;10.60;99.90
27890;DHT22;15238;49.082;9.102;2022-10-31T01:17:24;10.50;99.90
27890;DHT22;15238;49.082;9.102;2022-10-31T01:19:25;10.60;99.90
27890;DHT22;15238;49.082;9.102;2022-10-31T01:21:27;10.60;99.90
27890;DHT22;15238;49.082;9.102;2022-10-31T01:23:28;10.60;99.90
27890;DHT22;15238;49.082;9.102;2022-10-31T01:25:29;10.60;99.90
27890;DHT22;15238;49.082;9.102;2022-10-31T01:27:30;10.50;99.90
27890;DHT22;15238;49.082;9.102;2022-10-31T01:29:31;10.40;99.90
27890;DHT22;15238;49.082;9.102;2022-10-31T01:31:34;10.40;99.90
27890;DHT22;15238;49.082;9.102;2022-10-31T01:33:36;10.40;99.90
27890;DHT22;15238;49.082;9.102;2022-10-31T01:35:37;10.30;99.90
27890;DHT22;15238;49.082;9.102;2022-10-31T01:37:37;10.30;99.90
27890;DHT22;15238;49.082;9.102;2022-10-31T01:39:37;10.30;99.90
27890;DHT22;15238;49.082;9.102;2022-10-31T01:41:40;10.30;99.90
27890;DHT22;15238;49.082;9.102;2022-10-31T01:43:43;10.20;99.90
27890;DHT22;15238;49.082;9.102;2022-10-31T01:45:50;10.30;99.90
27890;DHT22;15238;49.082;9.102;2022-10-31T01:47:51;10.20;99.90
27890;DHT22;15238;49.082;9.102;2022-10-31T01:49:56;10.20;99.90
27890;DHT22;15238;49.082;9.102;2022-10-31T01:52:02;10.20;99.90
27890;DHT22;15238;49.082;9.102;2022-10-31T01:54:10;10.10;99.90
27890;DHT22;15238;49.082;9.102;2022-10-31T01:56:13;10.20;99.90
27890;DHT22;15238;49.082;9.102;2022-10-31T01:58:24;10.20;99.90
27890;DHT22;15238;49.082;9.102;2022-10-31T02:00:26;10.20;99.90
27890;DHT22;15238;49.082;9.102;2022-10-31T02:02:27;10.20;99.90
27890;DHT22;15238;49.082;9.102;2022-10-31T02:04:30;10.10;99.90
27890;DHT22;15238;49.082;9.102;2022-10-31T02:06:37;10.10;99.90
27890;DHT22;15238;49.082;9.102;2022-10-31T02:08:39;10.10;99.90
27890;DHT22;15238;49.082;9.102;2022-10-31T02:10:40;10.10;99.90
27890;DHT22;15238;49.082;9.102;2022-10-31T02:12:42;10.10;99.90
27890;DHT22;15238;49.082;9.102;2022-10-31T02:14:44;10.10;99.90
27890;DHT22;15238;49.082;9.102;2022-10-31T02:16:44;10.20;99.90
27890;DHT22;15238;49.082;9.102;2022-10-31T02:18:45;10.20;99.90
27890;DHT22;15238;49.082;9.102;2022-10-31T02:36:39;10.10;99.90
27890;DHT22;15238;49.082;9.102;2022-10-31T02:38:59;10.00;99.90
27890;DHT22;15238;49.082;9.102;2022-10-31T02:41:14;10.00;99.90
27890;DHT22;15238;49.082;9.102;2022-10-31T02:43:22;10.00;99.90
27890;DHT22;15238;49.082;9.102;2022-10-31T02:45:35;10.00;99.90
27890;DHT22;15238;49.082;9.102;2022-10-31T02:47:37;9.90;99.90
27890;DHT22;15238;49.082;9.102;2022-10-31T02:52:21;9.90;99.90
27890;DHT22;15238;49.082;9.102;2022-10-31T02:54:25;9.80;99.90
27890;DHT22;15238;49.082;9.102;2022-10-31T02:56:26;9.80;99.90
27890;DHT22;15238;49.082;9.102;2022-10-31T02:58:31;9.70;99.90
27890;DHT22;15238;49.082;9.102;2022-10-31T03:00:41;9.80;99.90
27890;DHT22;15238;49.082;9.102;2022-10-31T03:07:12;9.60;99.90
27890;DHT22;15238;49.082;9.102;2022-10-31T03:10:15;9.60;99.90
27890;DHT22;15238;49.082;9.102;2022-10-31T03:12:08;9.60;99.90
27890;DHT22;15238;49.082;9.102;2022-10-31T03:14:16;9.60;99.90
27890;DHT22;15238;49.082;9.102;2022-10-31T03:18:51;9.50;99.90
27890;DHT22;15238;49.082;9.102;2022-10-31T03:20:58;9.50;99.90
27890;DHT22;15238;49.082;9.102;2022-10-31T03:23:01;9.60;99.90
27890;DHT22;15238;49.082;9.102;2022-10-31T03:25:04;9.60;99.90
27890;DHT22;15238;49.082;9.102;2022-10-31T03:27:07;9.60;99.90
27890;DHT22;15238;49.082;9.102;2022-10-31T03:29:12;9.60;99.90
27890;DHT22;15238;49.082;9.102;2022-10-31T03:31:17;9.60;99.90
27890;DHT22;15238;49.082;9.102;2022-10-31T03:33:23;9.60;99.90
27890;DHT22;15238;49.082;9.102;2022-10-31T03:35:27;9.60;99.90
27890;DHT22;15238;49.082;9.102;2022-10-31T03:37:30;9.60;99.90
27890;DHT22;15238;49.082;9.102;2022-10-31T03:39:33;9.50;99.90
27890;DHT22;15238;49.082;9.102;2022-10-31T03:41:39;9.50;99.90
27890;DHT22;15238;49.082;9.102;2022-10-31T03:43:48;9.50;99.90
27890;DHT22;15238;49.082;9.102;2022-10-31T03:45:52;9.50;99.90
27890;DHT22;15238;49.082;9.102;2022-10-31T03:47:54;9.50;99.90
27890;DHT22;15238;49.082;9.102;2022-10-31T03:49:55;9.40;99.90
27890;DHT22;15238;49.082;9.102;2022-10-31T03:52:07;9.40;99.90
27890;DHT22;15238;49.082;9.102;2022-10-31T03:54:22;9.40;99.90
27890;DHT22;15238;49.082;9.102;2022-10-31T03:56:33;9.40;99.90
27890;DHT22;15238;49.082;9.102;2022-10-31T03:58:42;9.30;99.90
27890;DHT22;15238;49.082;9.102;2022-10-31T04:00:44;9.30;99.90
27890;DHT22;15238;49.082;9.102;2022-10-31T04:02:57;9.30;99.90
27890;DHT22;15238;49.082;9.102;2022-10-31T04:04:59;9.30;99.90
27890;DHT22;15238;49.082;9.102;2022-10-31T04:07:01;9.30;99.90
27890;DHT22;15238;49.082;9.102;2022-10-31T04:09:05;9.30;99.90
27890;DHT22;15238;49.082;9.102;2022-10-31T04:11:08;9.20;99.90
27890;DHT22;15238;49.082;9.102;2022-10-31T04:13:14;9.20;99.90
27890;DHT22;15238;49.082;9.102;2022-10-31T04:15:16;9.20;99.90
27890;DHT22;15238;49.082;9.102;2022-10-31T04:17:19;9.20;99.90
27890;DHT22;15238;49.082;9.102;2022-10-31T04:19:21;9.20;99.90
27890;DHT22;15238;49.082;9.102;2022-10-31T04:21:27;9.20;99.90
27890;DHT22;15238;49.082;9.102;2022-10-31T04:23:29;9.20;99.90
27890;DHT22;15238;49.082;9.102;2022-10-31T04:25:30;9.30;99.90
27890;DHT22;15238;49.082;9.102;2022-10-31T04:27:31;9.30;99.90
27890;DHT22;15238;49.082;9.102;2022-10-31T04:29:31;9.40;99.90
27890;DHT22;15238;49.082;9.102;2022-10-31T04:31:32;9.40;99.90
27890;DHT22;15238;49.082;9.102;2022-10-31T04:33:33;9.40;99.90
27890;DHT22;15238;49.082;9.102;2022-10-31T04:35:33;9.40;99.90
27890;DHT22;15238;49.082;9.102;2022-10-31T04:37:34;9.50;99.90
27890;DHT22;15238;49.082;9.102;2022-10-31T04:39:34;9.40;99.90
27890;DHT22;15238;49.082;9.102;2022-10-31T04:41:35;9.50;99.90
27890;DHT22;15238;49.082;9.102;2022-10-31T04:43:35;9.60;99.90
27890;DHT22;15238;49.082;9.102;2022-10-31T04:45:37;9.70;99.90
27890;DHT22;15238;49.082;9.102;2022-10-31T04:47:37;9.70;99.90
27890;DHT22;15238;49.082;9.102;2022-10-31T04:49:38;9.70;99.90
27890;DHT22;15238;49.082;9.102;2022-10-31T04:51:38;9.70;99.90
27890;DHT22;15238;49.082;9.102;2022-10-31T04:53:39;9.70;99.90
27890;DHT22;15238;49.082;9.102;2022-10-31T04:55:39;9.60;99.90
27890;DHT22;15238;49.082;9.102;2022-10-31T04:57:45;9.60;99.90
27890;DHT22;15238;49.082;9.102;2022-10-31T04:59:45;9.60;99.90
27890;DHT22;15238;49.082;9.102;2022-10-31T05:01:46;9.60;99.90
27890;DHT22;15238;49.082;9.102;2022-10-31T05:03:46;9.60;99.90
27890;DHT22;15238;49.082;9.102;2022-10-31T05:05:47;9.60;99.90
27890;DHT22;15238;49.082;9.102;2022-10-31T05:07:48;9.60;99.90
27890;DHT22;15238;49.082;9.102;2022-10-31T05:09:49;9.50;99.90
27890;DHT22;15238;49.082;9.102;2022-10-31T05:11:49;9.40;99.90
27890;DHT22;15238;49.082;9.102;2022-10-31T05:13:50;9.40;99.90
27890;DHT22;15238;49.082;9.102;2022-10-31T05:15:50;9.40;99.90
27890;DHT22;15238;49.082;9.102;2022-10-31T05:17:52;9.30;99.90
27890;DHT22;15238;49.082;9.102;2022-10-31T05:19:53;9.30;99.90
27890;DHT22;15238;49.082;9.102;2022-10-31T05:21:53;9.20;99.90
27890;DHT22;15238;49.082;9.102;2022-10-31T05:23:54;9.10;99.90
27890;DHT22;15238;49.082;9.102;2022-10-31T05:25:54;9.10;99.90
27890;DHT22;15238;49.082;9.102;2022-10-31T05:27:55;9.10;99.90
27890;DHT22;15238;49.082;9.102;2022-10-31T05:29:56;9.00;99.90
27890;DHT22;15238;49.082;9.102;2022-10-31T05:31:56;9.00;99.90
27890;DHT22;15238;49.082;9.102;2022-10-31T05:33:57;9.00;99.90
27890;DHT22;15238;49.082;9.102;2022-10-31T05:35:58;8.90;99.90
27890;DHT22;15238;49.082;9.102;2022-10-31T05:37:59;8.80;99.90
27890;DHT22;15238;49.082;9.102;2022-10-31T05:40:00;8.80;99.90
27890;DHT22;15238;49.082;9.102;2022-10-31T05:42:00;8.80;99.90
27890;DHT22;15238;49.082;9.102;2022-10-31T05:44:01;8.80;99.90
27890;DHT22;15238;49.082;9.102;2022-10-31T05:46:01;8.80;99.90
27890;DHT22;15238;49.082;9.102;2022-10-31T05:48:02;8.70;99.90
27890;DHT22;15238;49.082;9.102;2022-10-31T05:50:03;8.70;99.90
27890;DHT22;15238;49.082;9.102;2022-10-31T05:52:04;8.80;99.90
27890;DHT22;15238;49.082;9.102;2022-10-31T05:54:05;8.80;99.90
27890;DHT22;15238;49.082;9.102;2022-10-31T05:56:05;8.80;99.90
27890;DHT22;15238;49.082;9.102;2022-10-31T05:58:06;8.70;99.90
27890;DHT22;15238;49.082;9.102;2022-10-31T06:00:08;8.70;99.90
27890;DHT22;15238;49.082;9.102;2022-10-31T06:02:08;8.60;99.90
27890;DHT22;15238;49.082;9.102;2022-10-31T06:04:09;8.60;99.90
27890;DHT22;15238;49.082;9.102;2022-10-31T06:06:10;8.60;99.90
27890;DHT22;15238;49.082;9.102;2022-10-31T06:08:10;8.60;99.90
27890;DHT22;15238;49.082;9.102;2022-10-31T06:10:11;8.50;99.90
27890;DHT22;15238;49.082;9.102;2022-10-31T06:12:11;8.50;99.90
27890;DHT22;15238;49.082;9.102;2022-10-31T06:14:12;8.50;99.90
27890;DHT22;15238;49.082;9.102;2022-10-31T06:16:12;8.50;99.90
27890;DHT22;15238;49.082;9.102;2022-10-31T06:18:13;8.50;99.90
27890;DHT22;15238;49.082;9.102;2022-10-31T06:20:13;8.40;99.90
27890;DHT22;15238;49.082;9.102;2022-10-31T06:22:14;8.30;99.90
27890;DHT22;15238;49.082;9.102;2022-10-31T06:24:14;8.30;99.90
27890;DHT22;15238;49.082;9.102;2022-10-31T06:26:15;8.40;99.90
27890;DHT22;15238;49.082;9.102;2022-10-31T06:28:16;8.40;99.90
27890;DHT22;15238;49.082;9.102;2022-10-31T06:30:16;8.40;99.90
27890;DHT22;15238;49.082;9.102;2022-10-31T06:32:17;8.30;99.90
27890;DHT22;15238;49.082;9.102;2022-10-31T06:34:18;8.30;99.90
27890;DHT22;15238;49.082;9.102;2022-10-31T06:36:18;8.50;99.90
27890;DHT22;15238;49.082;9.102;2022-10-31T06:38:19;8.50;99.90
27890;DHT22;15238;49.082;9.102;2022-10-31T06:40:20;8.60;99.90
27890;DHT22;15238;49.082;9.102;2022-10-31T06:42:20;8.60;99.90
27890;DHT22;15238;49.082;9.102;2022-10-31T06:44:21;8.60;99.90
27890;DHT22;15238;49.082;9.102;2022-10-31T06:46:21;8.50;99.90
27890;DHT22;15238;49.082;9.102;2022-10-31T06:48:22;8.50;99.90
27890;DHT22;15238;49.082;9.102;2022-10-31T06:50:23;8.50;99.90
27890;DHT22;15238;49.082;9.102;2022-10-31T06:52:23;8.50;99.90
27890;DHT22;15238;49.082;9.102;2022-10-31T06:54:24;8.60;99.90
27890;DHT22;15238;49.082;9.102;2022-10-31T06:56:24;8.60;99.90
27890;DHT22;15238;49.082;9.102;2022-10-31T06:58:25;8.70;99.90
27890;DHT22;15238;49.082;9.102;2022-10-31T07:00:28;8.70;99.90
27890;DHT22;15238;49.082;9.102;2022-10-31T07:02:29;8.80;99.90
27890;DHT22;15238;49.082;9.102;2022-10-31T07:04:29;8.80;99.90
27890;DHT22;15238;49.082;9.102;2022-10-31T07:06:30;8.80;99.90
27890;DHT22;15238;49.082;9.102;2022-10-31T07:08:30;8.90;99.90
27890;DHT22;15238;49.082;9.102;2022-10-31T07:10:32;9.00;99.90
27890;DHT22;15238;49.082;9.102;2022-10-31T07:12:33;9.10;99.90
27890;DHT22;15238;49.082;9.102;2022-10-31T07:14:33;9.10;99.90
27890;DHT22;15238;49.082;9.102;2022-10-31T07:16:34;9.20;99.90
27890;DHT22;15238;49.082;9.102;2022-10-31T07:18:35;9.30;99.90
27890;DHT22;15238;49.082;9.102;2022-10-31T07:20:36;9.30;99.90
27890;DHT22;15238;49.082;9.102;2022-10-31T07:22:37;9.40;99.90
27890;DHT22;15238;49.082;9.102;2022-10-31T07:24:38;9.40;99.90
27890;DHT22;15238;49.082;9.102;2022-10-31T07:26:38;9.40;99.90
27890;DHT22;15238;49.082;9.102;2022-10-31T07:28:39;9.30;99.90
27890;DHT22;15238;49.082;9.102;2022-10-31T07:30:40;9.30;99.90
27890;DHT22;15238;49.082;9.102;2022-10-31T07:32:41;9.40;99.90
27890;DHT22;15238;49.082;9.102;2022-10-31T07:34:42;9.40;99.90
27890;DHT22;15238;49.082;9.102;2022-10-31T07:36:43;9.50;99.90
27890;DHT22;15238;49.082;9.102;2022-10-31T07:38:43;9.60;99.90
27890;DHT22;15238;49.082;9.102;2022-10-31T07:40:48;9.60;99.90
27890;DHT22;15238;49.082;9.102;2022-10-31T07:42:51;9.60;99.90
27890;DHT22;15238;49.082;9.102;2022-10-31T07:44:52;9.60;99.90
27890;DHT22;15238;49.082;9.102;2022-10-31T07:46:52;9.70;99.90
27890;DHT22;15238;49.082;9.102;2022-10-31T07:48:53;9.70;99.90
27890;DHT22;15238;49.082;9.102;2022-10-31T07:50:54;9.80;99.90
27890;DHT22;15238;49.082;9.102;2022-10-31T07:55:03;9.90;99.90
27890;DHT22;15238;49.082;9.102;2022-10-31T07:57:04;9.90;99.90
27890;DHT22;15238;49.082;9.102;2022-10-31T07:59:05;10.00;99.90
27890;DHT22;15238;49.082;9.102;2022-10-31T08:01:05;10.00;99.90
27890;DHT22;15238;49.082;9.102;2022-10-31T08:03:08;10.10;99.90
27890;DHT22;15238;49.082;9.102;2022-10-31T08:05:09;10.20;99.90
27890;DHT22;15238;49.082;9.102;2022-10-31T08:07:10;10.30;99.90
27890;DHT22;15238;49.082;9.102;2022-10-31T08:09:10;10.40;99.90
27890;DHT22;15238;49.082;9.102;2022-10-31T08:11:11;10.40;99.90
27890;DHT22;15238;49.082;9.102;2022-10-31T08:13:13;10.40;99.90
27890;DHT22;15238;49.082;9.102;2022-10-31T08:15:14;10.40;99.90
27890;DHT22;15238;49.082;9.102;2022-10-31T08:17:14;10.40;99.90
27890;DHT22;15238;49.082;9.102;2022-10-31T08:19:15;10.50;99.90
27890;DHT22;15238;49.082;9.102;2022-10-31T08:21:15;10.50;99.90
27890;DHT22;15238;49.082;9.102;2022-10-31T08:23:17;10.50;99.90
27890;DHT22;15238;49.082;9.102;2022-10-31T08:25:18;10.50;99.90
27890;DHT22;15238;49.082;9.102;2022-10-31T08:27:18;10.40;99.90
27890;DHT22;15238;49.082;9.102;2022-10-31T08:29:19;10.40;99.90
27890;DHT22;15238;49.082;9.102;2022-10-31T08:31:20;10.50;99.90
27890;DHT22;15238;49.082;9.102;2022-10-31T08:33:20;10.60;99.90
27890;DHT22;15238;49.082;9.102;2022-10-31T08:35:21;10.70;99.90
27890;DHT22;15238;49.082;9.102;2022-10-31T08:37:21;10.80;99.90
27890;DHT22;15238;49.082;9.102;2022-10-31T08:39:22;10.90;99.90
27890;DHT22;15238;49.082;9.102;2022-10-31T08:41:22;11.00;99.90
27890;DHT22;15238;49.082;9.102;2022-10-31T08:43:23;11.00;99.90
27890;DHT22;15238;49.082;9.102;2022-10-31T08:45:24;11.00;99.90
27890;DHT22;15238;49.082;9.102;2022-10-31T08:47:24;11.10;99.90
27890;DHT22;15238;49.082;9.102;2022-10-31T08:49:25;11.20;99.90
27890;DHT22;15238;49.082;9.102;2022-10-31T08:51:25;11.30;99.90
27890;DHT22;15238;49.082;9.102;2022-10-31T08:53:26;11.40;99.90
27890;DHT22;15238;49.082;9.102;2022-10-31T08:55:27;11.40;99.90
27890;DHT22;15238;49.082;9.102;2022-10-31T08:57:27;11.40;99.90
27890;DHT22;15238;49.082;9.102;2022-10-31T08:59:28;11.40;99.90
27890;DHT22;15238;49.082;9.102;2022-10-31T09:01:29;11.40;99.90
27890;DHT22;15238;49.082;9.102;2022-10-31T09:03:30;11.50;99.90
27890;DHT22;15238;49.082;9.102;2022-10-31T09:05:32;11.60;99.90
27890;DHT22;15238;49.082;9.102;2022-10-31T09:07:33;11.60;99.90
27890;DHT22;15238;49.082;9.102;2022-10-31T09:09:33;11.70;99.90
27890;DHT22;15238;49.082;9.102;2022-10-31T09:11:34;11.70;99.90
27890;DHT22;15238;49.082;9.102;2022-10-31T09:13:34;11.70;99.90
27890;DHT22;15238;49.082;9.102;2022-10-31T09:15:37;11.80;99.90
27890;DHT22;15238;49.082;9.102;2022-10-31T09:17:38;11.80;99.90
27890;DHT22;15238;49.082;9.102;2022-10-31T09:19:39;11.80;99.90
27890;DHT22;15238;49.082;9.102;2022-10-31T09:21:39;11.90;99.90
27890;DHT22;15238;49.082;9.102;2022-10-31T09:23:40;11.90;99.90
27890;DHT22;15238;49.082;9.102;2022-10-31T09:25:41;12.00;99.90
27890;DHT22;15238;49.082;9.102;2022-10-31T09:27:41;12.10;99.90
27890;DHT22;15238;49.082;9.102;2022-10-31T09:29:42;12.20;99.90
27890;DHT22;15238;49.082;9.102;2022-10-31T09:31:42;12.30;99.90
27890;DHT22;15238;49.082;9.102;2022-10-31T09:33:43;12.40;99.90
27890;DHT22;15238;49.082;9.102;2022-10-31T09:35:44;12.40;99.90
27890;DHT22;15238;49.082;9.102;2022-10-31T09:37:44;12.40;99.90
27890;DHT22;15238;49.082;9.102;2022-10-31T09:39:45;12.60;99.90
27890;DHT22;15238;49.082;9.102;2022-10-31T09:44:08;12.80;99.90
27890;DHT22;15238;49.082;9.102;2022-10-31T09:46:58;12.80;99.90
27890;DHT22;15238;49.082;9.102;2022-10-31T09:49:24;12.90;99.90
27890;DHT22;15238;49.082;9.102;2022-10-31T09:51:37;13.00;99.90
27890;DHT22;15238;49.082;9.102;2022-10-31T09:53:49;13.10;99.90
27890;DHT22;15238;49.082;9.102;2022-10-31T09:55:51;13.30;99.90
27890;DHT22;15238;49.082;9.102;2022-10-31T09:57:53;13.40;99.90
27890;DHT22;15238;49.082;9.102;2022-10-31T09:59:54;13.60;99.90
27890;DHT22;15238;49.082;9.102;2022-10-31T10:02:01;13.70;99.90
27890;DHT22;15238;49.082;9.102;2022-10-31T10:04:21;13.90;99.90
27890;DHT22;15238;49.082;9.102;2022-10-31T10:06:29;14.00;99.90
27890;DHT22;15238;49.082;9.102;2022-10-31T10:08:33;14.00;99.90
27890;DHT22;15238;49.082;9.102;2022-10-31T10:10:45;14.00;99.90
27890;DHT22;15238;49.082;9.102;2022-10-31T10:13:19;14.20;99.90
27890;DHT22;15238;49.082;9.102;2022-10-31T10:20:49;14.50;99.90
27890;DHT22;15238;49.082;9.102;2022-10-31T10:25:40;14.70;99.90
27890;DHT22;15238;49.082;9.102;2022-10-31T10:32:23;14.80;99.90
27890;DHT22;15238;49.082;9.102;2022-10-31T10:34:33;14.90;99.90
27890;DHT22;15238;49.082;9.102;2022-10-31T10:36:55;14.70;99.90
27890;DHT22;15238;49.082;9.102;2022-10-31T10:39:04;14.80;99.90
27890;DHT22;15238;49.082;9.102;2022-10-31T10:41:19;14.80;99.90
27890;DHT22;15238;49.082;9.102;2022-10-31T10:43:30;14.90;99.90
27890;DHT22;15238;49.082;9.102;2022-10-31T10:45:32;15.00;99.90
27890;DHT22;15238;49.082;9.102;2022-10-31T10:47:58;15.10;99.90
27890;DHT22;15238;49.082;9.102;2022-10-31T10:50:01;15.20;99.90
27890;DHT22;15238;49.082;9.102;2022-10-31T10:56:38;15.20;99.90
27890;DHT22;15238;49.082;9.102;2022-10-31T10:58:40;15.20;99.90
27890;DHT22;15238;49.082;9.102;2022-10-31T11:00:44;15.30;99.90
27890;DHT22;15238;49.082;9.102;2022-10-31T11:02:46;15.40;99.90
27890;DHT22;15238;49.082;9.102;2022-10-31T11:04:51;15.40;99.90
27890;DHT22;15238;49.082;9.102;2022-10-31T11:09:08;15.50;99.90
27890;DHT22;15238;49.082;9.102;2022-10-31T11:11:23;15.50;99.90
27890;DHT22;15238;49.082;9.102;2022-10-31T11:13:25;15.50;99.90
27890;DHT22;15238;49.082;9.102;2022-10-31T11:15:27;15.40;99.90
27890;DHT22;15238;49.082;9.102;2022-10-31T11:17:39;15.40;99.90
27890;DHT22;15238;49.082;9.102;2022-10-31T11:19:40;15.40;99.90
27890;DHT22;15238;49.082;9.102;2022-10-31T11:21:41;15.50;99.90
27890;DHT22;15238;49.082;9.102;2022-10-31T11:23:41;15.40;99.90
27890;DHT22;15238;49.082;9.102;2022-10-31T11:25:58;15.30;99.90
27890;DHT22;15238;49.082;9.102;2022-10-31T11:28:00;15.20;99.90
27890;DHT22;15238;49.082;9.102;2022-10-31T11:30:05;15.10;99.90
27890;DHT22;15238;49.082;9.102;2022-10-31T11:32:17;15.10;99.90
27890;DHT22;15238;49.082;9.102;2022-10-31T11:36:37;15.00;99.90
27890;DHT22;15238;49.082;9.102;2022-10-31T11:38:43;15.00;99.90
27890;DHT22;15238;49.082;9.102;2022-10-31T11:40:56;15.00;99.90
27890;DHT22;15238;49.082;9.102;2022-10-31T11:42:58;15.10;99.90
27890;DHT22;15238;49.082;9.102;2022-10-31T11:45:14;15.10;99.90
27890;DHT22;15238;49.082;9.102;2022-10-31T11:47:16;15.10;99.90
27890;DHT22;15238;49.082;9.102;2022-10-31T11:49:25;15.20;99.90
27890;DHT22;15238;49.082;9.102;2022-10-31T11:51:30;15.20;99.90
27890;DHT22;15238;49.082;9.102;2022-10-31T11:53:33;15.10;99.90
27890;DHT22;15238;49.082;9.102;2022-10-31T11:55:37;15.00;99.90
27890;DHT22;15238;49.082;9.102;2022-10-31T11:57:48;14.90;99.90
27890;DHT22;15238;49.082;9.102;2022-10-31T11:59:57;14.90;99.90
27890;DHT22;15238;49.082;9.102;2022-10-31T12:02:01;15.00;99.90
27890;DHT22;15238;49.082;9.102;2022-10-31T12:04:09;15.10;99.90
27890;DHT22;15238;49.082;9.102;2022-10-31T12:06:20;15.30;99.90
27890;DHT22;15238;49.082;9.102;2022-10-31T12:08:21;15.50;99.90
27890;DHT22;15238;49.082;9.102;2022-10-31T12:10:38;15.60;99.90
27890;DHT22;15238;49.082;9.102;2022-10-31T12:13:08;15.60;99.90
27890;DHT22;15238;49.082;9.102;2022-10-31T12:15:32;15.60;99.90
27890;DHT22;15238;49.082;9.102;2022-10-31T12:17:39;15.60;99.90
27890;DHT22;15238;49.082;9.102;2022-10-31T12:24:16;15.80;99.90
27890;DHT22;15238;49.082;9.102;2022-10-31T12:26:26;15.90;99.90
27890;DHT22;15238;49.082;9.102;2022-10-31T12:31:07;16.10;99.90
27890;DHT22;15238;49.082;9.102;2022-10-31T12:33:43;16.20;99.90
27890;DHT22;15238;49.082;9.102;2022-10-31T12:45:25;16.20;99.90
27890;DHT22;15238;49.082;9.102;2022-10-31T12:50:43;16.20;99.90
27890;DHT22;15238;49.082;9.102;2022-10-31T12:52:36;16.30;99.90
27890;DHT22;15238;49.082;9.102;2022-10-31T12:55:28;16.40;99.90
27890;DHT22;15238;49.082;9.102;2022-10-31T12:57:36;16.50;99.90
27890;DHT22;15238;49.082;9.102;2022-10-31T12:59:42;16.50;99.90
27890;DHT22;15238;49.082;9.102;2022-10-31T13:06:07;16.70;99.90
27890;DHT22;15238;49.082;9.102;2022-10-31T13:08:13;16.70;99.90
27890;DHT22;15238;49.082;9.102;2022-10-31T13:10:22;16.70;99.90
27890;DHT22;15238;49.082;9.102;2022-10-31T13:12:25;16.70;99.90
27890;DHT22;15238;49.082;9.102;2022-10-31T13:14:43;16.70;99.90
27890;DHT22;15238;49.082;9.102;2022-10-31T13:16:47;16.70;99.90
27890;DHT22;15238;49.082;9.102;2022-10-31T13:21:24;16.60;99.90
27890;DHT22;15238;49.082;9.102;2022-10-31T13:23:33;16.50;99.90
27890;DHT22;15238;49.082;9.102;2022-10-31T13:25:39;16.40;99.90
27890;DHT22;15238;49.082;9.102;2022-10-31T13:27:55;16.40;99.90
27890;DHT22;15238;49.082;9.102;2022-10-31T13:32:04;16.50;99.90
27890;DHT22;15238;49.082;9.102;2022-10-31T13:36:39;16.50;99.90
27890;DHT22;15238;49.082;9.102;2022-10-31T13:40:53;16.40;99.90
27890;DHT22;15238;49.082;9.102;2022-10-31T13:43:06;16.30;99.90
27890;DHT22;15238;49.082;9.102;2022-10-31T13:45:26;16.30;99.90
27890;DHT22;15238;49.082;9.102;2022-10-31T13:47:28;16.20;99.90
27890;DHT22;15238;49.082;9.102;2022-10-31T13:51:32;16.30;99.90
27890;DHT22;15238;49.082;9.102;2022-10-31T13:55:48;16.60;99.90
27890;DHT22;15238;49.082;9.102;2022-10-31T13:57:49;16.80;99.90
27890;DHT22;15238;49.082;9.102;2022-10-31T14:00:02;17.00;99.90
27890;DHT22;15238;49.082;9.102;2022-10-31T14:02:15;17.30;99.90
27890;DHT22;15238;49.082;9.102;2022-10-31T14:04:22;17.40;99.90
27890;DHT22;15238;49.082;9.102;2022-10-31T14:06:23;17.50;99.90
27890;DHT22;15238;49.082;9.102;2022-10-31T14:08:37;17.60;99.90
27890;DHT22;15238;49.082;9.102;2022-10-31T14:10:45;17.70;99.90
27890;DHT22;15238;49.082;9.102;2022-10-31T14:12:47;17.70;99.90
27890;DHT22;15238;49.082;9.102;2022-10-31T14:14:51;17.70;99.90
27890;DHT22;15238;49.082;9.102;2022-10-31T14:16:56;17.70;99.90
27890;DHT22;15238;49.082;9.102;2022-10-31T14:19:07;17.60;99.90
27890;DHT22;15238;49.082;9.102;2022-10-31T14:23:35;17.50;99.90
27890;DHT22;15238;49.082;9.102;2022-10-31T14:25:38;17.40;99.90
27890;DHT22;15238;49.082;9.102;2022-10-31T14:27:46;17.30;99.90
27890;DHT22;15238;49.082;9.102;2022-10-31T14:29:47;17.20;99.90
27890;DHT22;15238;49.082;9.102;2022-10-31T14:34:32;17.00;99.90
27890;DHT22;15238;49.082;9.102;2022-10-31T14:36:43;16.90;99.90
27890;DHT22;15238;49.082;9.102;2022-10-31T14:41:41;16.60;99.90
27890;DHT22;15238;49.082;9.102;2022-10-31T14:44:16;16.50;99.90
27890;DHT22;15238;49.082;9.102;2022-10-31T14:47:08;16.40;99.90